sensor_id;sensor_type;location;lat;lon;timestamp;P1;durP1;ratioP1;P2;durP2;ratioP2
572;SDS011;271;51.114;13.780;2023-10-31T00:12:00;22.03;;;7.53;;
572;SDS011;271;51.114;13.780;2023-10-31T00:14:47;23.00;;;8.17;;
572;SDS011;271;51.114;13.780;2023-10-31T00:17:35;20.37;;;7.40;;
572;SDS011;271;51.114;13.780;2023-10-31T00:20:23;23.73;;;10.03;;
572;SDS011;271;51.114;13.780;2023-10-31T00:23:10;21.30;;;7.83;;
572;SDS011;271;51.114;13.780;2023-10-31T00:25:58;21.77;;;8.60;;
572;SDS011;271;51.114;13.780;2023-10-31T00:28:47;21.63;;;7.43;;
572;SDS011;271;51.114;13.780;2023-10-31T00:39:06;21.40;;;8.50;;
572;SDS011;271;51.114;13.780;2023-10-31T00:45:40;23.00;;;8.30;;
572;SDS011;271;51.114;13.780;2023-10-31T01:19:48;23.00;;;8.80;;
572;SDS011;271;51.114;13.780;2023-10-31T01:22:50;23.50;;;8.63;;
572;SDS011;271;51.114;13.780;2023-10-31T01:25:50;23.17;;;8.93;;
572;SDS011;271;51.114;13.780;2023-10-31T01:28:51;23.70;;;9.00;;
572;SDS011;271;51.114;13.780;2023-10-31T01:31:44;21.43;;;9.50;;
572;SDS011;271;51.114;13.780;2023-10-31T01:34:31;23.93;;;8.60;;
572;SDS011;271;51.114;13.780;2023-10-31T01:37:20;25.40;;;9.53;;
572;SDS011;271;51.114;13.780;2023-10-31T01:40:11;23.90;;;9.00;;
572;SDS011;271;51.114;13.780;2023-10-31T01:42:59;22.83;;;8.93;;
572;SDS011;271;51.114;13.780;2023-10-31T01:45:47;26.30;;;9.47;;
572;SDS011;271;51.114;13.780;2023-10-31T01:48:39;25.47;;;9.77;;
572;SDS011;271;51.114;13.780;2023-10-31T01:51:27;25.10;;;10.30;;
572;SDS011;271;51.114;13.780;2023-10-31T01:54:17;22.63;;;9.40;;
572;SDS011;271;51.114;13.780;2023-10-31T01:57:05;23.20;;;10.40;;
572;SDS011;271;51.114;13.780;2023-10-31T01:59:53;23.30;;;9.30;;
572;SDS011;271;51.114;13.780;2023-10-31T02:02:40;23.37;;;10.40;;
572;SDS011;271;51.114;13.780;2023-10-31T02:05:29;24.63;;;9.93;;
572;SDS011;271;51.114;13.780;2023-10-31T02:08:24;23.10;;;10.20;;
572;SDS011;271;51.114;13.780;2023-10-31T02:11:13;22.83;;;9.73;;
572;SDS011;271;51.114;13.780;2023-10-31T02:14:01;25.00;;;10.53;;
572;SDS011;271;51.114;13.780;2023-10-31T02:16:49;23.47;;;11.00;;
572;SDS011;271;51.114;13.780;2023-10-31T02:19:37;24.13;;;11.70;;
572;SDS011;271;51.114;13.780;2023-10-31T02:22:26;24.40;;;10.30;;
572;SDS011;271;51.114;13.780;2023-10-31T02:25:26;26.30;;;12.27;;
572;SDS011;271;51.114;13.780;2023-10-31T02:28:15;24.20;;;12.33;;
572;SDS011;271;51.114;13.780;2023-10-31T02:31:03;25.30;;;12.37;;
572;SDS011;271;51.114;13.780;2023-10-31T02:33:50;27.00;;;13.50;;
572;SDS011;271;51.114;13.780;2023-10-31T02:36:38;28.30;;;13.07;;
572;SDS011;271;51.114;13.780;2023-10-31T02:39:27;27.13;;;13.50;;
572;SDS011;271;51.114;13.780;2023-10-31T02:42:15;27.70;;;13.63;;
572;SDS011;271;51.114;13.780;2023-10-31T02:45:03;30.57;;;15.37;;
572;SDS011;271;51.114;13.780;2023-10-31T02:47:51;30.63;;;15.30;;
572;SDS011;271;51.114;13.780;2023-10-31T02:50:39;32.70;;;16.30;;
572;SDS011;271;51.114;13.780;2023-10-31T02:53:26;30.27;;;15.97;;
572;SDS011;271;51.114;13.780;2023-10-31T02:56:15;31.43;;;17.20;;
572;SDS011;271;51.114;13.780;2023-10-31T02:59:03;31.33;;;16.60;;
572;SDS011;271;51.114;13.780;2023-10-31T03:01:51;35.40;;;18.43;;
572;SDS011;271;51.114;13.780;2023-10-31T03:04:39;31.87;;;16.63;;
572;SDS011;271;51.114;13.780;2023-10-31T03:07:27;33.63;;;17.87;;
572;SDS011;271;51.114;13.780;2023-10-31T03:10:15;34.40;;;17.50;;
572;SDS011;271;51.114;13.780;2023-10-31T03:13:04;41.47;;;20.93;;
572;SDS011;271;51.114;13.780;2023-10-31T03:15:52;35.70;;;20.17;;
572;SDS011;271;51.114;13.780;2023-10-31T03:18:39;35.80;;;19.67;;
572;SDS011;271;51.114;13.780;2023-10-31T03:21:27;38.60;;;21.43;;
572;SDS011;271;51.114;13.780;2023-10-31T03:24:15;36.30;;;19.53;;
572;SDS011;271;51.114;13.780;2023-10-31T03:27:02;38.67;;;19.97;;
572;SDS011;271;51.114;13.780;2023-10-31T03:29:51;38.33;;;21.20;;
572;SDS011;271;51.114;13.780;2023-10-31T03:32:39;41.33;;;20.70;;
572;SDS011;271;51.114;13.780;2023-10-31T03:35:27;36.40;;;19.70;;
572;SDS011;271;51.114;13.780;2023-10-31T03:38:14;36.03;;;19.10;;
572;SDS011;271;51.114;13.780;2023-10-31T03:41:02;33.73;;;18.17;;
572;SDS011;271;51.114;13.780;2023-10-31T03:43:50;38.30;;;20.83;;
572;SDS011;271;51.114;13.780;2023-10-31T03:46:39;35.03;;;18.67;;
572;SDS011;271;51.114;13.780;2023-10-31T03:49:27;33.67;;;18.27;;
572;SDS011;271;51.114;13.780;2023-10-31T03:52:14;36.17;;;19.43;;
572;SDS011;271;51.114;13.780;2023-10-31T03:55:02;37.90;;;19.17;;
572;SDS011;271;51.114;13.780;2023-10-31T03:57:50;37.30;;;18.03;;
572;SDS011;271;51.114;13.780;2023-10-31T04:00:38;34.80;;;18.10;;
572;SDS011;271;51.114;13.780;2023-10-31T04:03:28;37.40;;;18.17;;
572;SDS011;271;51.114;13.780;2023-10-31T04:06:15;39.57;;;18.80;;
572;SDS011;271;51.114;13.780;2023-10-31T04:09:03;33.60;;;15.93;;
572;SDS011;271;51.114;13.780;2023-10-31T04:11:51;33.07;;;16.67;;
572;SDS011;271;51.114;13.780;2023-10-31T04:14:39;31.00;;;13.53;;
572;SDS011;271;51.114;13.780;2023-10-31T04:17:27;32.87;;;13.57;;
572;SDS011;271;51.114;13.780;2023-10-31T04:20:16;26.30;;;11.50;;
572;SDS011;271;51.114;13.780;2023-10-31T04:23:03;29.33;;;11.60;;
572;SDS011;271;51.114;13.780;2023-10-31T04:25:51;28.13;;;12.10;;
572;SDS011;271;51.114;13.780;2023-10-31T04:28:39;27.03;;;11.03;;
572;SDS011;271;51.114;13.780;2023-10-31T04:31:27;24.87;;;10.17;;
572;SDS011;271;51.114;13.780;2023-10-31T04:34:14;24.63;;;10.90;;
572;SDS011;271;51.114;13.780;2023-10-31T04:37:03;24.10;;;8.83;;
572;SDS011;271;51.114;13.780;2023-10-31T04:39:51;23.07;;;7.67;;
572;SDS011;271;51.114;13.780;2023-10-31T04:42:39;23.10;;;9.13;;
572;SDS011;271;51.114;13.780;2023-10-31T04:45:27;22.97;;;8.50;;
572;SDS011;271;51.114;13.780;2023-10-31T04:48:15;23.83;;;8.07;;
572;SDS011;271;51.114;13.780;2023-10-31T04:51:04;22.47;;;7.70;;
572;SDS011;271;51.114;13.780;2023-10-31T04:53:53;20.20;;;6.67;;
572;SDS011;271;51.114;13.780;2023-10-31T04:56:41;21.00;;;6.33;;
572;SDS011;271;51.114;13.780;2023-10-31T04:59:29;19.67;;;5.73;;
572;SDS011;271;51.114;13.780;2023-10-31T05:02:16;19.87;;;5.30;;
572;SDS011;271;51.114;13.780;2023-10-31T05:05:04;19.70;;;6.53;;
572;SDS011;271;51.114;13.780;2023-10-31T05:07:52;18.63;;;5.60;;
572;SDS011;271;51.114;13.780;2023-10-31T05:10:41;18.97;;;5.17;;
572;SDS011;271;51.114;13.780;2023-10-31T05:13:29;20.60;;;5.53;;
572;SDS011;271;51.114;13.780;2023-10-31T05:16:17;19.50;;;5.17;;
572;SDS011;271;51.114;13.780;2023-10-31T05:19:04;17.83;;;4.40;;
572;SDS011;271;51.114;13.780;2023-10-31T05:21:52;20.10;;;5.40;;
572;SDS011;271;51.114;13.780;2023-10-31T05:24:40;19.40;;;5.33;;
572;SDS011;271;51.114;13.780;2023-10-31T05:27:29;17.77;;;4.10;;
572;SDS011;271;51.114;13.780;2023-10-31T05:30:16;18.87;;;4.43;;
572;SDS011;271;51.114;13.780;2023-10-31T05:33:04;19.70;;;5.30;;
572;SDS011;271;51.114;13.780;2023-10-31T05:35:52;17.60;;;4.30;;
572;SDS011;271;51.114;13.780;2023-10-31T05:38:39;17.67;;;4.20;;
572;SDS011;271;51.114;13.780;2023-10-31T05:41:27;17.10;;;3.53;;
572;SDS011;271;51.114;13.780;2023-10-31T05:44:16;18.37;;;3.33;;
572;SDS011;271;51.114;13.780;2023-10-31T05:47:04;17.03;;;2.90;;
572;SDS011;271;51.114;13.780;2023-10-31T05:49:52;19.10;;;3.37;;
572;SDS011;271;51.114;13.780;2023-10-31T05:52:39;16.47;;;2.80;;
572;SDS011;271;51.114;13.780;2023-10-31T05:55:27;16.70;;;2.90;;
572;SDS011;271;51.114;13.780;2023-10-31T05:58:15;17.50;;;2.90;;
572;SDS011;271;51.114;13.780;2023-10-31T06:01:04;16.93;;;2.97;;
572;SDS011;271;51.114;13.780;2023-10-31T06:03:52;16.60;;;2.50;;
572;SDS011;271;51.114;13.780;2023-10-31T06:06:40;17.53;;;2.13;;
572;SDS011;271;51.114;13.780;2023-10-31T06:09:27;16.87;;;2.20;;
572;SDS011;271;51.114;13.780;2023-10-31T06:12:15;15.97;;;2.20;;
572;SDS011;271;51.114;13.780;2023-10-31T06:15:03;16.23;;;2.60;;
572;SDS011;271;51.114;13.780;2023-10-31T06:17:52;15.73;;;1.80;;
572;SDS011;271;51.114;13.780;2023-10-31T06:20:40;19.40;;;2.30;;
572;SDS011;271;51.114;13.780;2023-10-31T06:23:27;16.50;;;2.60;;
572;SDS011;271;51.114;13.780;2023-10-31T06:26:15;15.63;;;1.73;;
572;SDS011;271;51.114;13.780;2023-10-31T06:29:03;16.40;;;2.27;;
572;SDS011;271;51.114;13.780;2023-10-31T06:31:51;16.37;;;1.80;;
572;SDS011;271;51.114;13.780;2023-10-31T06:34:40;16.50;;;1.60;;
572;SDS011;271;51.114;13.780;2023-10-31T06:37:28;15.70;;;1.80;;
572;SDS011;271;51.114;13.780;2023-10-31T06:40:15;16.17;;;1.60;;
572;SDS011;271;51.114;13.780;2023-10-31T06:43:22;15.80;;;1.63;;
572;SDS011;271;51.114;13.780;2023-10-31T06:47:19;15.60;;;1.40;;
572;SDS011;271;51.114;13.780;2023-10-31T06:54:30;15.30;;;1.20;;
572;SDS011;271;51.114;13.780;2023-10-31T06:57:55;15.40;;;1.30;;
572;SDS011;271;51.114;13.780;2023-10-31T07:00:43;15.60;;;1.40;;
572;SDS011;271;51.114;13.780;2023-10-31T07:03:31;15.90;;;1.70;;
572;SDS011;271;51.114;13.780;2023-10-31T07:18:01;15.60;;;1.30;;
572;SDS011;271;51.114;13.780;2023-10-31T07:24:39;15.43;;;1.00;;
572;SDS011;271;51.114;13.780;2023-10-31T07:27:52;16.77;;;1.17;;
572;SDS011;271;51.114;13.780;2023-10-31T07:30:39;15.53;;;1.10;;
572;SDS011;271;51.114;13.780;2023-10-31T07:33:28;16.10;;;1.67;;
572;SDS011;271;51.114;13.780;2023-10-31T07:36:16;15.23;;;1.00;;
572;SDS011;271;51.114;13.780;2023-10-31T07:39:04;15.47;;;1.10;;
572;SDS011;271;51.114;13.780;2023-10-31T07:43:09;15.60;;;1.20;;
572;SDS011;271;51.114;13.780;2023-10-31T07:45:57;16.10;;;1.20;;
572;SDS011;271;51.114;13.780;2023-10-31T07:48:51;15.67;;;1.10;;
572;SDS011;271;51.114;13.780;2023-10-31T07:51:40;15.90;;;1.00;;
572;SDS011;271;51.114;13.780;2023-10-31T07:54:28;15.37;;;0.97;;
572;SDS011;271;51.114;13.780;2023-10-31T07:57:16;15.80;;;1.00;;
572;SDS011;271;51.114;13.780;2023-10-31T08:00:04;15.37;;;0.90;;
572;SDS011;271;51.114;13.780;2023-10-31T08:02:57;15.43;;;1.00;;
572;SDS011;271;51.114;13.780;2023-10-31T08:05:46;15.50;;;0.97;;
572;SDS011;271;51.114;13.780;2023-10-31T08:08:33;15.37;;;1.00;;
572;SDS011;271;51.114;13.780;2023-10-31T08:11:22;15.80;;;1.00;;
572;SDS011;271;51.114;13.780;2023-10-31T08:14:10;16.47;;;1.10;;
572;SDS011;271;51.114;13.780;2023-10-31T08:16:58;15.47;;;0.80;;
572;SDS011;271;51.114;13.780;2023-10-31T08:19:45;16.07;;;1.00;;
572;SDS011;271;51.114;13.780;2023-10-31T08:22:35;15.83;;;0.90;;
572;SDS011;271;51.114;13.780;2023-10-31T08:25:23;16.50;;;1.10;;
572;SDS011;271;51.114;13.780;2023-10-31T08:28:12;15.73;;;0.93;;
572;SDS011;271;51.114;13.780;2023-10-31T08:31:05;15.67;;;0.90;;
572;SDS011;271;51.114;13.780;2023-10-31T08:33:55;16.03;;;0.90;;
572;SDS011;271;51.114;13.780;2023-10-31T08:36:43;15.53;;;0.80;;
572;SDS011;271;51.114;13.780;2023-10-31T08:42:34;15.53;;;0.80;;
572;SDS011;271;51.114;13.780;2023-10-31T08:45:21;15.83;;;0.90;;
572;SDS011;271;51.114;13.780;2023-10-31T08:48:16;15.70;;;0.80;;
572;SDS011;271;51.114;13.780;2023-10-31T08:51:04;16.40;;;0.80;;
572;SDS011;271;51.114;13.780;2023-10-31T08:53:52;15.37;;;0.70;;
572;SDS011;271;51.114;13.780;2023-10-31T08:56:41;15.70;;;0.70;;
572;SDS011;271;51.114;13.780;2023-10-31T08:59:28;15.30;;;0.80;;
572;SDS011;271;51.114;13.780;2023-10-31T09:02:16;15.57;;;0.80;;
572;SDS011;271;51.114;13.780;2023-10-31T09:05:04;15.60;;;0.90;;
572;SDS011;271;51.114;13.780;2023-10-31T09:07:52;15.07;;;0.80;;
572;SDS011;271;51.114;13.780;2023-10-31T09:10:40;15.10;;;0.90;;
572;SDS011;271;51.114;13.780;2023-10-31T09:13:30;14.77;;;0.80;;
572;SDS011;271;51.114;13.780;2023-10-31T09:16:17;14.93;;;0.80;;
572;SDS011;271;51.114;13.780;2023-10-31T09:19:05;14.90;;;0.90;;
572;SDS011;271;51.114;13.780;2023-10-31T09:22:02;14.27;;;0.80;;
572;SDS011;271;51.114;13.780;2023-10-31T09:34:54;15.30;;;1.17;;
572;SDS011;271;51.114;13.780;2023-10-31T09:37:42;17.80;;;0.70;;
572;SDS011;271;51.114;13.780;2023-10-31T09:40:35;13.73;;;0.70;;
572;SDS011;271;51.114;13.780;2023-10-31T09:43:23;14.07;;;0.90;;
572;SDS011;271;51.114;13.780;2023-10-31T09:46:11;13.77;;;0.80;;
572;SDS011;271;51.114;13.780;2023-10-31T09:48:59;13.93;;;0.90;;
572;SDS011;271;51.114;13.780;2023-10-31T11:30:28;14.30;;;0.80;;
572;SDS011;271;51.114;13.780;2023-10-31T11:36:32;13.77;;;1.30;;
572;SDS011;271;51.114;13.780;2023-10-31T11:39:22;14.20;;;0.90;;
572;SDS011;271;51.114;13.780;2023-10-31T11:42:32;13.87;;;1.00;;
572;SDS011;271;51.114;13.780;2023-10-31T11:45:53;13.80;;;0.70;;
572;SDS011;271;51.114;13.780;2023-10-31T11:48:47;13.77;;;0.70;;
572;SDS011;271;51.114;13.780;2023-10-31T11:51:37;14.40;;;1.20;;
572;SDS011;271;51.114;13.780;2023-10-31T11:54:27;20.93;;;5.50;;
572;SDS011;271;51.114;13.780;2023-10-31T11:57:25;16.03;;;1.97;;
572;SDS011;271;51.114;13.780;2023-10-31T12:00:21;15.67;;;2.00;;
572;SDS011;271;51.114;13.780;2023-10-31T12:03:11;14.80;;;1.80;;
572;SDS011;271;51.114;13.780;2023-10-31T12:05:59;13.87;;;0.90;;
572;SDS011;271;51.114;13.780;2023-10-31T12:08:47;13.70;;;0.70;;
572;SDS011;271;51.114;13.780;2023-10-31T12:11:37;13.70;;;0.73;;
572;SDS011;271;51.114;13.780;2023-10-31T12:14:32;13.87;;;0.80;;
572;SDS011;271;51.114;13.780;2023-10-31T12:17:20;13.87;;;0.70;;
572;SDS011;271;51.114;13.780;2023-10-31T12:20:10;18.40;;;1.20;;
572;SDS011;271;51.114;13.780;2023-10-31T12:23:03;13.93;;;0.70;;
572;SDS011;271;51.114;13.780;2023-10-31T12:25:52;13.80;;;0.80;;
572;SDS011;271;51.114;13.780;2023-10-31T12:28:41;13.67;;;0.80;;
572;SDS011;271;51.114;13.780;2023-10-31T12:31:31;14.17;;;1.00;;
572;SDS011;271;51.114;13.780;2023-10-31T13:08:16;13.80;;;0.80;;
572;SDS011;271;51.114;13.780;2023-10-31T13:11:04;14.57;;;0.97;;
572;SDS011;271;51.114;13.780;2023-10-31T13:13:55;13.97;;;0.93;;
572;SDS011;271;51.114;13.780;2023-10-31T13:16:42;14.70;;;0.80;;
572;SDS011;271;51.114;13.780;2023-10-31T13:31:43;14.30;;;0.90;;
572;SDS011;271;51.114;13.780;2023-10-31T13:34:34;14.23;;;1.00;;
572;SDS011;271;51.114;13.780;2023-10-31T13:37:25;15.53;;;1.07;;
572;SDS011;271;51.114;13.780;2023-10-31T13:40:13;14.00;;;1.07;;
572;SDS011;271;51.114;13.780;2023-10-31T13:43:04;13.90;;;1.13;;
572;SDS011;271;51.114;13.780;2023-10-31T13:45:55;14.43;;;1.10;;
572;SDS011;271;51.114;13.780;2023-10-31T16:06:20;14.07;;;1.33;;
572;SDS011;271;51.114;13.780;2023-10-31T16:09:09;14.03;;;1.00;;
572;SDS011;271;51.114;13.780;2023-10-31T16:11:56;15.10;;;1.50;;
572;SDS011;271;51.114;13.780;2023-10-31T16:14:44;14.57;;;1.60;;
572;SDS011;271;51.114;13.780;2023-10-31T16:17:32;14.60;;;1.30;;
572;SDS011;271;51.114;13.780;2023-10-31T16:20:22;14.80;;;1.43;;
572;SDS011;271;51.114;13.780;2023-10-31T16:23:09;14.97;;;1.63;;
572;SDS011;271;51.114;13.780;2023-10-31T16:25:57;14.13;;;1.33;;
572;SDS011;271;51.114;13.780;2023-10-31T16:28:45;14.10;;;1.20;;
572;SDS011;271;51.114;13.780;2023-10-31T16:31:33;14.47;;;1.30;;
572;SDS011;271;51.114;13.780;2023-10-31T16:34:21;14.30;;;1.17;;
572;SDS011;271;51.114;13.780;2023-10-31T16:37:12;14.00;;;1.23;;
572;SDS011;271;51.114;13.780;2023-10-31T16:40:01;14.27;;;1.27;;
572;SDS011;271;51.114;13.780;2023-10-31T16:42:48;14.77;;;1.47;;
572;SDS011;271;51.114;13.780;2023-10-31T16:45:36;15.30;;;1.83;;
572;SDS011;271;51.114;13.780;2023-10-31T16:48:24;14.47;;;1.67;;
572;SDS011;271;51.114;13.780;2023-10-31T16:51:15;52.47;;;30.67;;
572;SDS011;271;51.114;13.780;2023-10-31T16:54:05;18.93;;;5.47;;
572;SDS011;271;51.114;13.780;2023-10-31T16:56:52;14.90;;;2.30;;
572;SDS011;271;51.114;13.780;2023-10-31T16:59:40;14.60;;;1.90;;
572;SDS011;271;51.114;13.780;2023-10-31T17:02:28;18.33;;;4.97;;
572;SDS011;271;51.114;13.780;2023-10-31T17:05:16;15.47;;;2.70;;
572;SDS011;271;51.114;13.780;2023-10-31T17:08:03;15.53;;;2.20;;
572;SDS011;271;51.114;13.780;2023-10-31T17:10:53;14.40;;;1.50;;
572;SDS011;271;51.114;13.780;2023-10-31T17:13:41;14.80;;;2.10;;
572;SDS011;271;51.114;13.780;2023-10-31T17:16:28;16.30;;;3.50;;
572;SDS011;271;51.114;13.780;2023-10-31T17:19:16;15.00;;;1.90;;
572;SDS011;271;51.114;13.780;2023-10-31T17:22:04;14.67;;;1.37;;
572;SDS011;271;51.114;13.780;2023-10-31T17:24:51;14.47;;;1.37;;
572;SDS011;271;51.114;13.780;2023-10-31T17:27:41;15.37;;;1.83;;
572;SDS011;271;51.114;13.780;2023-10-31T17:30:28;15.10;;;2.43;;
572;SDS011;271;51.114;13.780;2023-10-31T17:33:16;14.37;;;1.47;;
572;SDS011;271;51.114;13.780;2023-10-31T17:36:04;15.40;;;1.93;;
572;SDS011;271;51.114;13.780;2023-10-31T17:38:54;14.27;;;1.60;;
572;SDS011;271;51.114;13.780;2023-10-31T17:41:41;15.40;;;2.53;;
572;SDS011;271;51.114;13.780;2023-10-31T17:44:31;14.80;;;1.80;;
572;SDS011;271;51.114;13.780;2023-10-31T17:47:19;15.00;;;1.93;;
572;SDS011;271;51.114;13.780;2023-10-31T17:50:08;14.80;;;2.13;;
572;SDS011;271;51.114;13.780;2023-10-31T17:52:56;16.80;;;2.60;;
572;SDS011;271;51.114;13.780;2023-10-31T17:55:44;17.03;;;4.53;;
572;SDS011;271;51.114;13.780;2023-10-31T17:58:31;14.90;;;1.80;;
572;SDS011;271;51.114;13.780;2023-10-31T18:01:20;15.40;;;2.53;;
572;SDS011;271;51.114;13.780;2023-10-31T18:04:08;17.43;;;2.93;;
572;SDS011;271;51.114;13.780;2023-10-31T18:06:56;15.30;;;2.20;;
572;SDS011;271;51.114;13.780;2023-10-31T18:09:44;15.97;;;3.03;;
572;SDS011;271;51.114;13.780;2023-10-31T18:12:32;15.87;;;2.80;;
572;SDS011;271;51.114;13.780;2023-10-31T18:15:19;19.87;;;7.23;;
572;SDS011;271;51.114;13.780;2023-10-31T18:18:09;16.07;;;2.60;;
572;SDS011;271;51.114;13.780;2023-10-31T18:20:56;15.80;;;3.47;;
572;SDS011;271;51.114;13.780;2023-10-31T18:23:47;16.40;;;3.03;;
572;SDS011;271;51.114;13.780;2023-10-31T18:26:38;15.80;;;3.50;;
572;SDS011;271;51.114;13.780;2023-10-31T18:29:26;17.00;;;3.80;;
572;SDS011;271;51.114;13.780;2023-10-31T18:32:13;17.03;;;3.27;;
572;SDS011;271;51.114;13.780;2023-10-31T18:35:04;15.00;;;2.10;;
572;SDS011;271;51.114;13.780;2023-10-31T18:37:53;16.60;;;2.40;;
572;SDS011;271;51.114;13.780;2023-10-31T18:40:41;16.30;;;2.53;;
572;SDS011;271;51.114;13.780;2023-10-31T18:43:29;15.73;;;1.77;;
572;SDS011;271;51.114;13.780;2023-10-31T18:46:16;15.00;;;1.83;;
572;SDS011;271;51.114;13.780;2023-10-31T18:49:04;15.57;;;2.07;;
572;SDS011;271;51.114;13.780;2023-10-31T18:51:53;14.50;;;1.77;;
572;SDS011;271;51.114;13.780;2023-10-31T18:54:41;15.33;;;2.30;;
572;SDS011;271;51.114;13.780;2023-10-31T18:57:29;19.67;;;4.60;;
572;SDS011;271;51.114;13.780;2023-10-31T19:00:16;15.17;;;2.87;;
572;SDS011;271;51.114;13.780;2023-10-31T19:03:04;14.90;;;2.20;;
572;SDS011;271;51.114;13.780;2023-10-31T19:05:52;15.00;;;1.70;;
572;SDS011;271;51.114;13.780;2023-10-31T19:08:41;14.77;;;1.93;;
572;SDS011;271;51.114;13.780;2023-10-31T19:11:29;16.20;;;2.37;;
572;SDS011;271;51.114;13.780;2023-10-31T19:14:17;15.60;;;1.80;;
572;SDS011;271;51.114;13.780;2023-10-31T19:17:04;14.70;;;1.50;;
572;SDS011;271;51.114;13.780;2023-10-31T19:19:54;15.43;;;1.50;;
572;SDS011;271;51.114;13.780;2023-10-31T19:22:42;15.37;;;1.87;;
572;SDS011;271;51.114;13.780;2023-10-31T19:25:31;14.60;;;1.67;;
572;SDS011;271;51.114;13.780;2023-10-31T19:28:22;15.20;;;1.90;;
572;SDS011;271;51.114;13.780;2023-10-31T19:31:22;15.63;;;1.90;;
572;SDS011;271;51.114;13.780;2023-10-31T19:34:17;15.50;;;1.67;;
572;SDS011;271;51.114;13.780;2023-10-31T19:37:07;14.60;;;1.47;;
572;SDS011;271;51.114;13.780;2023-10-31T19:39:58;14.97;;;1.47;;
572;SDS011;271;51.114;13.780;2023-10-31T19:46:41;14.67;;;1.20;;
572;SDS011;271;51.114;13.780;2023-10-31T19:49:33;15.80;;;1.60;;
572;SDS011;271;51.114;13.780;2023-10-31T19:52:20;14.80;;;1.60;;
572;SDS011;271;51.114;13.780;2023-10-31T19:55:08;16.20;;;1.67;;
572;SDS011;271;51.114;13.780;2023-10-31T19:57:56;15.00;;;1.67;;
572;SDS011;271;51.114;13.780;2023-10-31T20:00:44;16.47;;;1.80;;
572;SDS011;271;51.114;13.780;2023-10-31T20:03:35;14.90;;;1.30;;
572;SDS011;271;51.114;13.780;2023-10-31T20:06:23;15.27;;;1.70;;
572;SDS011;271;51.114;13.780;2023-10-31T20:09:11;16.40;;;1.50;;
572;SDS011;271;51.114;13.780;2023-10-31T20:11:59;14.80;;;1.60;;
572;SDS011;271;51.114;13.780;2023-10-31T20:14:48;15.27;;;1.27;;
572;SDS011;271;51.114;13.780;2023-10-31T20:17:36;14.90;;;1.53;;
572;SDS011;271;51.114;13.780;2023-10-31T20:20:40;14.90;;;1.20;;
572;SDS011;271;51.114;13.780;2023-10-31T20:23:28;15.30;;;1.40;;
572;SDS011;271;51.114;13.780;2023-10-31T20:26:16;16.40;;;1.50;;
572;SDS011;271;51.114;13.780;2023-10-31T20:29:20;15.30;;;1.63;;
572;SDS011;271;51.114;13.780;2023-10-31T20:32:36;14.80;;;1.30;;
572;SDS011;271;51.114;13.780;2023-10-31T20:38:55;14.50;;;1.20;;
572;SDS011;271;51.114;13.780;2023-10-31T20:41:55;14.10;;;1.30;;
572;SDS011;271;51.114;13.780;2023-10-31T20:44:46;14.80;;;1.50;;
572;SDS011;271;51.114;13.780;2023-10-31T20:47:35;14.43;;;1.43;;
572;SDS011;271;51.114;13.780;2023-10-31T20:50:36;14.27;;;1.20;;
572;SDS011;271;51.114;13.780;2023-10-31T20:53:36;14.60;;;1.40;;
572;SDS011;271;51.114;13.780;2023-10-31T20:56:26;16.70;;;1.30;;
572;SDS011;271;51.114;13.780;2023-10-31T20:59:14;15.30;;;1.23;;
572;SDS011;271;51.114;13.780;2023-10-31T21:02:02;14.67;;;1.70;;
572;SDS011;271;51.114;13.780;2023-10-31T21:04:50;15.10;;;1.70;;
572;SDS011;271;51.114;13.780;2023-10-31T21:07:38;14.23;;;1.43;;
572;SDS011;271;51.114;13.780;2023-10-31T21:10:26;15.00;;;1.50;;
572;SDS011;271;51.114;13.780;2023-10-31T21:13:15;15.10;;;1.30;;
572;SDS011;271;51.114;13.780;2023-10-31T21:16:03;14.17;;;1.03;;
572;SDS011;271;51.114;13.780;2023-10-31T21:18:52;18.33;;;1.80;;
572;SDS011;271;51.114;13.780;2023-10-31T21:21:40;14.33;;;1.50;;
572;SDS011;271;51.114;13.780;2023-10-31T21:24:27;14.27;;;1.43;;
572;SDS011;271;51.114;13.780;2023-10-31T21:27:15;15.10;;;1.40;;
572;SDS011;271;51.114;13.780;2023-10-31T21:30:07;14.83;;;1.50;;
572;SDS011;271;51.114;13.780;2023-10-31T21:32:56;14.87;;;1.43;;
572;SDS011;271;51.114;13.780;2023-10-31T21:35:43;14.70;;;1.40;;
572;SDS011;271;51.114;13.780;2023-10-31T21:38:31;14.03;;;1.20;;
572;SDS011;271;51.114;13.780;2023-10-31T21:41:19;15.00;;;1.20;;
572;SDS011;271;51.114;13.780;2023-10-31T21:44:07;14.17;;;1.20;;
572;SDS011;271;51.114;13.780;2023-10-31T21:46:56;17.50;;;1.57;;
572;SDS011;271;51.114;13.780;2023-10-31T21:49:44;14.13;;;1.20;;
572;SDS011;271;51.114;13.780;2023-10-31T21:52:33;14.13;;;1.10;;
572;SDS011;271;51.114;13.780;2023-10-31T21:55:21;15.93;;;1.80;;
572;SDS011;271;51.114;13.780;2023-10-31T21:58:09;13.97;;;1.10;;
572;SDS011;271;51.114;13.780;2023-10-31T22:00:59;15.30;;;1.30;;
572;SDS011;271;51.114;13.780;2023-10-31T22:03:51;14.50;;;1.30;;
572;SDS011;271;51.114;13.780;2023-10-31T22:06:39;15.73;;;1.90;;
572;SDS011;271;51.114;13.780;2023-10-31T22:09:27;14.93;;;1.77;;
572;SDS011;271;51.114;13.780;2023-10-31T22:12:16;14.87;;;1.20;;
572;SDS011;271;51.114;13.780;2023-10-31T22:15:04;14.30;;;1.63;;
572;SDS011;271;51.114;13.780;2023-10-31T22:17:52;14.37;;;1.50;;
572;SDS011;271;51.114;13.780;2023-10-31T22:20:41;17.77;;;1.90;;
572;SDS011;271;51.114;13.780;2023-10-31T22:23:33;14.80;;;1.50;;
572;SDS011;271;51.114;13.780;2023-10-31T22:26:20;14.70;;;1.17;;
572;SDS011;271;51.114;13.780;2023-10-31T22:29:08;14.20;;;1.40;;
572;SDS011;271;51.114;13.780;2023-10-31T22:31:57;14.60;;;1.50;;
572;SDS011;271;51.114;13.780;2023-10-31T22:34:45;15.20;;;1.30;;
572;SDS011;271;51.114;13.780;2023-10-31T22:37:34;16.80;;;1.60;;
572;SDS011;271;51.114;13.780;2023-10-31T22:40:22;15.43;;;1.47;;
572;SDS011;271;51.114;13.780;2023-10-31T22:43:10;14.50;;;1.10;;
572;SDS011;271;51.114;13.780;2023-10-31T22:45:57;15.97;;;1.80;;
572;SDS011;271;51.114;13.780;2023-10-31T22:48:45;14.40;;;1.47;;
572;SDS011;271;51.114;13.780;2023-10-31T22:51:33;14.43;;;1.30;;
572;SDS011;271;51.114;13.780;2023-10-31T22:54:23;14.70;;;1.30;;
572;SDS011;271;51.114;13.780;2023-10-31T22:57:10;14.07;;;1.40;;
572;SDS011;271;51.114;13.780;2023-10-31T22:59:58;14.70;;;1.40;;
572;SDS011;271;51.114;13.780;2023-10-31T23:06:29;15.10;;;1.30;;
572;SDS011;271;51.114;13.780;2023-10-31T23:09:18;15.30;;;1.47;;
572;SDS011;271;51.114;13.780;2023-10-31T23:12:07;14.80;;;1.23;;
572;SDS011;271;51.114;13.780;2023-10-31T23:15:06;15.43;;;1.33;;
572;SDS011;271;51.114;13.780;2023-10-31T23:17:57;15.13;;;1.30;;
572;SDS011;271;51.114;13.780;2023-10-31T23:20:45;14.90;;;1.50;;
572;SDS011;271;51.114;13.780;2023-10-31T23:23:33;14.60;;;1.60;;
572;SDS011;271;51.114;13.780;2023-10-31T23:26:20;15.43;;;1.50;;
572;SDS011;271;51.114;13.780;2023-10-31T23:29:09;15.03;;;1.50;;
572;SDS011;271;51.114;13.780;2023-10-31T23:31:57;15.17;;;1.40;;
572;SDS011;271;51.114;13.780;2023-10-31T23:34:45;17.50;;;1.73;;
572;SDS011;271;51.114;13.780;2023-10-31T23:37:33;17.97;;;1.93;;
572;SDS011;271;51.114;13.780;2023-10-31T23:40:21;14.93;;;1.60;;
572;SDS011;271;51.114;13.780;2023-10-31T23:46:36;15.40;;;2.10;;
572;SDS011;271;51.114;13.780;2023-10-31T23:49:24;14.90;;;1.70;;
572;SDS011;271;51.114;13.780;2023-10-31T23:52:12;14.80;;;1.53;;
572;SDS011;271;51.114;13.780;2023-10-31T23:55:00;14.93;;;1.70;;
572;SDS011;271;51.114;13.780;2023-10-31T23:57:47;15.90;;;1.60;;
